sensor_id;sensor_type;location;lat;lon;timestamp;P1;durP1;ratioP1;P2;durP2;ratioP2
11283;SDS011;5698;47.332;11.180;2022-10-18T00:00:10;3.13;;;2.33;;
11283;SDS011;5698;47.332;11.180;2022-10-18T00:02:38;2.93;;;2.07;;
11283;SDS011;5698;47.332;11.180;2022-10-18T00:05:05;3.37;;;2.43;;
11283;SDS011;5698;47.332;11.180;2022-10-18T00:07:32;4.37;;;2.40;;
11283;SDS011;5698;47.332;11.180;2022-10-18T00:09:59;2.40;;;2.20;;
11283;SDS011;5698;47.332;11.180;2022-10-18T00:12:26;2.43;;;2.23;;
11283;SDS011;5698;47.332;11.180;2022-10-18T00:14:54;2.40;;;2.20;;
11283;SDS011;5698;47.332;11.180;2022-10-18T00:17:21;2.67;;;2.20;;
11283;SDS011;5698;47.332;11.180;2022-10-18T00:19:48;2.50;;;2.30;;
11283;SDS011;5698;47.332;11.180;2022-10-18T00:22:15;2.90;;;2.50;;
11283;SDS011;5698;47.332;11.180;2022-10-18T00:24:42;6.10;;;2.33;;
11283;SDS011;5698;47.332;11.180;2022-10-18T00:27:09;4.37;;;2.63;;
11283;SDS011;5698;47.332;11.180;2022-10-18T00:29:36;2.40;;;2.20;;
11283;SDS011;5698;47.332;11.180;2022-10-18T00:32:05;4.73;;;2.23;;
11283;SDS011;5698;47.332;11.180;2022-10-18T00:34:32;2.70;;;2.50;;
11283;SDS011;5698;47.332;11.180;2022-10-18T00:36:59;2.63;;;2.40;;
11283;SDS011;5698;47.332;11.180;2022-10-18T00:39:26;3.23;;;2.50;;
11283;SDS011;5698;47.332;11.180;2022-10-18T00:41:52;2.60;;;2.40;;
11283;SDS011;5698;47.332;11.180;2022-10-18T00:47:25;2.87;;;2.50;;
11283;SDS011;5698;47.332;11.180;2022-10-18T00:49:54;3.00;;;2.67;;
11283;SDS011;5698;47.332;11.180;2022-10-18T00:52:24;4.07;;;2.60;;
11283;SDS011;5698;47.332;11.180;2022-10-18T00:54:54;3.47;;;2.63;;
11283;SDS011;5698;47.332;11.180;2022-10-18T00:57:22;3.03;;;2.80;;
11283;SDS011;5698;47.332;11.180;2022-10-18T00:59:50;3.30;;;3.00;;
11283;SDS011;5698;47.332;11.180;2022-10-18T01:02:18;4.20;;;2.83;;
11283;SDS011;5698;47.332;11.180;2022-10-18T01:04:47;3.63;;;2.70;;
11283;SDS011;5698;47.332;11.180;2022-10-18T01:07:17;4.57;;;2.90;;
11283;SDS011;5698;47.332;11.180;2022-10-18T01:09:56;6.17;;;3.00;;
11283;SDS011;5698;47.332;11.180;2022-10-18T01:12:31;3.33;;;2.83;;
11283;SDS011;5698;47.332;11.180;2022-10-18T01:15:11;3.83;;;2.73;;
11283;SDS011;5698;47.332;11.180;2022-10-18T01:17:45;3.00;;;2.30;;
11283;SDS011;5698;47.332;11.180;2022-10-18T01:23:32;3.67;;;2.73;;
11283;SDS011;5698;47.332;11.180;2022-10-18T01:26:12;4.70;;;2.60;;
11283;SDS011;5698;47.332;11.180;2022-10-18T01:28:50;2.80;;;2.60;;
11283;SDS011;5698;47.332;11.180;2022-10-18T01:31:26;4.03;;;2.70;;
11283;SDS011;5698;47.332;11.180;2022-10-18T01:33:56;3.33;;;2.60;;
11283;SDS011;5698;47.332;11.180;2022-10-18T01:36:27;3.20;;;2.90;;
11283;SDS011;5698;47.332;11.180;2022-10-18T01:38:58;4.17;;;2.40;;
11283;SDS011;5698;47.332;11.180;2022-10-18T01:41:30;3.33;;;2.50;;
11283;SDS011;5698;47.332;11.180;2022-10-18T01:43:59;3.03;;;2.43;;
11283;SDS011;5698;47.332;11.180;2022-10-18T01:46:29;3.17;;;2.73;;
11283;SDS011;5698;47.332;11.180;2022-10-18T01:48:57;5.53;;;3.10;;
11283;SDS011;5698;47.332;11.180;2022-10-18T01:51:25;2.93;;;2.63;;
11283;SDS011;5698;47.332;11.180;2022-10-18T01:53:53;3.20;;;2.50;;
11283;SDS011;5698;47.332;11.180;2022-10-18T01:56:25;3.03;;;2.73;;
11283;SDS011;5698;47.332;11.180;2022-10-18T01:59:05;5.60;;;2.97;;
11283;SDS011;5698;47.332;11.180;2022-10-18T02:01:44;2.80;;;2.60;;
11283;SDS011;5698;47.332;11.180;2022-10-18T02:04:19;3.23;;;2.93;;
11283;SDS011;5698;47.332;11.180;2022-10-18T02:06:52;3.93;;;2.50;;
11283;SDS011;5698;47.332;11.180;2022-10-18T02:09:29;3.60;;;2.93;;
11283;SDS011;5698;47.332;11.180;2022-10-18T02:11:59;2.77;;;2.47;;
11283;SDS011;5698;47.332;11.180;2022-10-18T02:14:28;4.00;;;2.70;;
11283;SDS011;5698;47.332;11.180;2022-10-18T02:16:58;2.80;;;2.60;;
11283;SDS011;5698;47.332;11.180;2022-10-18T02:19:29;4.07;;;2.77;;
11283;SDS011;5698;47.332;11.180;2022-10-18T02:21:59;3.17;;;2.83;;
11283;SDS011;5698;47.332;11.180;2022-10-18T02:24:29;2.87;;;2.60;;
11283;SDS011;5698;47.332;11.180;2022-10-18T02:26:59;3.37;;;3.07;;
11283;SDS011;5698;47.332;11.180;2022-10-18T02:29:27;3.07;;;2.77;;
11283;SDS011;5698;47.332;11.180;2022-10-18T02:31:54;2.83;;;2.60;;
11283;SDS011;5698;47.332;11.180;2022-10-18T02:34:29;3.27;;;2.97;;
11283;SDS011;5698;47.332;11.180;2022-10-18T02:37:01;3.33;;;2.77;;
11283;SDS011;5698;47.332;11.180;2022-10-18T02:39:29;4.40;;;2.83;;
11283;SDS011;5698;47.332;11.180;2022-10-18T02:41:58;3.00;;;2.70;;
11283;SDS011;5698;47.332;11.180;2022-10-18T02:44:25;4.27;;;2.67;;
11283;SDS011;5698;47.332;11.180;2022-10-18T02:46:52;3.17;;;2.40;;
11283;SDS011;5698;47.332;11.180;2022-10-18T02:49:21;3.27;;;2.97;;
11283;SDS011;5698;47.332;11.180;2022-10-18T02:51:48;3.20;;;2.70;;
11283;SDS011;5698;47.332;11.180;2022-10-18T02:54:15;3.07;;;2.73;;
11283;SDS011;5698;47.332;11.180;2022-10-18T02:56:42;3.50;;;2.77;;
11283;SDS011;5698;47.332;11.180;2022-10-18T02:59:09;3.20;;;2.77;;
11283;SDS011;5698;47.332;11.180;2022-10-18T03:01:36;2.90;;;2.60;;
11283;SDS011;5698;47.332;11.180;2022-10-18T03:04:03;5.40;;;2.80;;
11283;SDS011;5698;47.332;11.180;2022-10-18T03:06:32;2.93;;;2.63;;
11283;SDS011;5698;47.332;11.180;2022-10-18T03:09:00;3.40;;;2.83;;
11283;SDS011;5698;47.332;11.180;2022-10-18T03:11:27;3.13;;;2.83;;
11283;SDS011;5698;47.332;11.180;2022-10-18T03:13:54;2.80;;;2.60;;
11283;SDS011;5698;47.332;11.180;2022-10-18T03:16:21;6.23;;;2.80;;
11283;SDS011;5698;47.332;11.180;2022-10-18T03:18:49;2.60;;;2.40;;
11283;SDS011;5698;47.332;11.180;2022-10-18T03:21:16;2.80;;;2.50;;
11283;SDS011;5698;47.332;11.180;2022-10-18T03:23:44;2.80;;;2.60;;
11283;SDS011;5698;47.332;11.180;2022-10-18T03:26:11;4.63;;;2.67;;
11283;SDS011;5698;47.332;11.180;2022-10-18T03:28:38;2.70;;;2.50;;
11283;SDS011;5698;47.332;11.180;2022-10-18T03:31:05;3.13;;;2.60;;
11283;SDS011;5698;47.332;11.180;2022-10-18T03:33:32;3.73;;;2.80;;
11283;SDS011;5698;47.332;11.180;2022-10-18T03:35:59;3.13;;;2.87;;
11283;SDS011;5698;47.332;11.180;2022-10-18T03:38:26;3.03;;;2.73;;
11283;SDS011;5698;47.332;11.180;2022-10-18T03:40:54;4.33;;;2.50;;
11283;SDS011;5698;47.332;11.180;2022-10-18T03:43:21;4.10;;;3.00;;
11283;SDS011;5698;47.332;11.180;2022-10-18T03:45:48;3.17;;;2.87;;
11283;SDS011;5698;47.332;11.180;2022-10-18T03:48:15;3.60;;;2.60;;
11283;SDS011;5698;47.332;11.180;2022-10-18T03:50:42;3.60;;;2.73;;
11283;SDS011;5698;47.332;11.180;2022-10-18T03:53:09;3.30;;;3.00;;
11283;SDS011;5698;47.332;11.180;2022-10-18T03:55:36;3.50;;;3.00;;
11283;SDS011;5698;47.332;11.180;2022-10-18T03:58:05;3.30;;;2.57;;
11283;SDS011;5698;47.332;11.180;2022-10-18T04:00:32;3.33;;;2.63;;
11283;SDS011;5698;47.332;11.180;2022-10-18T04:02:59;3.20;;;2.90;;
11283;SDS011;5698;47.332;11.180;2022-10-18T04:05:26;2.73;;;2.53;;
11283;SDS011;5698;47.332;11.180;2022-10-18T04:07:55;4.50;;;2.87;;
11283;SDS011;5698;47.332;11.180;2022-10-18T04:10:22;4.33;;;2.47;;
11283;SDS011;5698;47.332;11.180;2022-10-18T04:12:49;2.67;;;2.47;;
11283;SDS011;5698;47.332;11.180;2022-10-18T04:15:17;2.80;;;2.60;;
11283;SDS011;5698;47.332;11.180;2022-10-18T04:17:44;2.60;;;2.40;;
11283;SDS011;5698;47.332;11.180;2022-10-18T04:20:11;2.70;;;2.50;;
11283;SDS011;5698;47.332;11.180;2022-10-18T04:22:38;2.60;;;2.37;;
11283;SDS011;5698;47.332;11.180;2022-10-18T04:25:06;2.70;;;2.50;;
11283;SDS011;5698;47.332;11.180;2022-10-18T04:27:33;2.90;;;2.43;;
11283;SDS011;5698;47.332;11.180;2022-10-18T04:30:00;3.00;;;2.70;;
11283;SDS011;5698;47.332;11.180;2022-10-18T04:32:28;2.97;;;2.67;;
11283;SDS011;5698;47.332;11.180;2022-10-18T04:34:55;3.20;;;2.90;;
11283;SDS011;5698;47.332;11.180;2022-10-18T04:37:22;2.57;;;2.37;;
11283;SDS011;5698;47.332;11.180;2022-10-18T04:39:49;3.13;;;2.83;;
11283;SDS011;5698;47.332;11.180;2022-10-18T04:42:16;2.90;;;2.60;;
11283;SDS011;5698;47.332;11.180;2022-10-18T04:44:43;3.00;;;2.80;;
11283;SDS011;5698;47.332;11.180;2022-10-18T04:47:10;2.87;;;2.37;;
11283;SDS011;5698;47.332;11.180;2022-10-18T04:49:38;4.60;;;2.33;;
11283;SDS011;5698;47.332;11.180;2022-10-18T04:52:05;3.03;;;2.70;;
11283;SDS011;5698;47.332;11.180;2022-10-18T04:54:32;2.87;;;2.63;;
11283;SDS011;5698;47.332;11.180;2022-10-18T04:56:59;2.70;;;2.43;;
11283;SDS011;5698;47.332;11.180;2022-10-18T04:59:26;2.97;;;2.70;;
11283;SDS011;5698;47.332;11.180;2022-10-18T05:01:54;3.17;;;2.87;;
11283;SDS011;5698;47.332;11.180;2022-10-18T05:04:20;3.07;;;2.60;;
11283;SDS011;5698;47.332;11.180;2022-10-18T05:06:49;2.77;;;2.47;;
11283;SDS011;5698;47.332;11.180;2022-10-18T05:09:16;3.43;;;2.57;;
11283;SDS011;5698;47.332;11.180;2022-10-18T05:11:43;3.93;;;2.80;;
11283;SDS011;5698;47.332;11.180;2022-10-18T05:14:10;3.00;;;2.50;;
11283;SDS011;5698;47.332;11.180;2022-10-18T05:16:37;7.50;;;2.40;;
11283;SDS011;5698;47.332;11.180;2022-10-18T05:19:04;2.53;;;2.33;;
11283;SDS011;5698;47.332;11.180;2022-10-18T05:21:31;3.33;;;2.57;;
11283;SDS011;5698;47.332;11.180;2022-10-18T05:24:00;5.00;;;2.53;;
11283;SDS011;5698;47.332;11.180;2022-10-18T05:26:27;3.47;;;3.00;;
11283;SDS011;5698;47.332;11.180;2022-10-18T05:28:54;2.83;;;2.60;;
11283;SDS011;5698;47.332;11.180;2022-10-18T05:31:21;3.57;;;3.27;;
11283;SDS011;5698;47.332;11.180;2022-10-18T05:33:48;4.00;;;3.60;;
11283;SDS011;5698;47.332;11.180;2022-10-18T05:36:14;2.80;;;2.60;;
11283;SDS011;5698;47.332;11.180;2022-10-18T05:38:42;3.47;;;2.57;;
11283;SDS011;5698;47.332;11.180;2022-10-18T05:41:11;3.00;;;2.80;;
11283;SDS011;5698;47.332;11.180;2022-10-18T05:43:38;3.10;;;2.70;;
11283;SDS011;5698;47.332;11.180;2022-10-18T05:46:05;2.97;;;2.27;;
11283;SDS011;5698;47.332;11.180;2022-10-18T05:48:32;2.67;;;2.20;;
11283;SDS011;5698;47.332;11.180;2022-10-18T05:51:00;2.33;;;2.13;;
11283;SDS011;5698;47.332;11.180;2022-10-18T05:53:27;2.63;;;2.40;;
11283;SDS011;5698;47.332;11.180;2022-10-18T05:55:54;3.10;;;2.80;;
11283;SDS011;5698;47.332;11.180;2022-10-18T05:58:22;3.20;;;2.67;;
11283;SDS011;5698;47.332;11.180;2022-10-18T06:00:49;5.13;;;2.50;;
11283;SDS011;5698;47.332;11.180;2022-10-18T06:03:16;4.27;;;2.70;;
11283;SDS011;5698;47.332;11.180;2022-10-18T06:05:43;4.93;;;2.90;;
11283;SDS011;5698;47.332;11.180;2022-10-18T06:08:10;3.57;;;2.73;;
11283;SDS011;5698;47.332;11.180;2022-10-18T06:10:37;4.60;;;2.77;;
11283;SDS011;5698;47.332;11.180;2022-10-18T06:13:05;3.20;;;2.90;;
11283;SDS011;5698;47.332;11.180;2022-10-18T06:15:33;3.03;;;2.73;;
11283;SDS011;5698;47.332;11.180;2022-10-18T06:18:00;4.27;;;3.00;;
11283;SDS011;5698;47.332;11.180;2022-10-18T06:20:27;2.90;;;2.60;;
11283;SDS011;5698;47.332;11.180;2022-10-18T06:22:54;2.90;;;2.70;;
11283;SDS011;5698;47.332;11.180;2022-10-18T06:25:21;3.10;;;2.80;;
11283;SDS011;5698;47.332;11.180;2022-10-18T06:27:48;3.50;;;3.20;;
11283;SDS011;5698;47.332;11.180;2022-10-18T06:30:15;3.47;;;3.17;;
11283;SDS011;5698;47.332;11.180;2022-10-18T06:32:43;2.63;;;2.40;;
11283;SDS011;5698;47.332;11.180;2022-10-18T06:35:10;4.77;;;2.80;;
11283;SDS011;5698;47.332;11.180;2022-10-18T06:37:37;2.70;;;2.50;;
11283;SDS011;5698;47.332;11.180;2022-10-18T06:40:04;4.00;;;2.70;;
11283;SDS011;5698;47.332;11.180;2022-10-18T06:42:32;4.67;;;2.77;;
11283;SDS011;5698;47.332;11.180;2022-10-18T06:44:59;2.97;;;2.63;;
11283;SDS011;5698;47.332;11.180;2022-10-18T06:47:27;2.63;;;2.43;;
11283;SDS011;5698;47.332;11.180;2022-10-18T06:49:55;4.03;;;2.70;;
11283;SDS011;5698;47.332;11.180;2022-10-18T06:52:23;2.60;;;2.40;;
11283;SDS011;5698;47.332;11.180;2022-10-18T06:54:50;3.23;;;2.90;;
11283;SDS011;5698;47.332;11.180;2022-10-18T06:57:18;5.83;;;3.17;;
11283;SDS011;5698;47.332;11.180;2022-10-18T06:59:46;12.30;;;3.63;;
11283;SDS011;5698;47.332;11.180;2022-10-18T07:02:15;13.57;;;4.33;;
11283;SDS011;5698;47.332;11.180;2022-10-18T07:04:42;9.63;;;3.47;;
11283;SDS011;5698;47.332;11.180;2022-10-18T07:07:11;8.53;;;3.37;;
11283;SDS011;5698;47.332;11.180;2022-10-18T07:09:38;9.27;;;2.93;;
11283;SDS011;5698;47.332;11.180;2022-10-18T07:12:05;9.20;;;4.03;;
11283;SDS011;5698;47.332;11.180;2022-10-18T07:14:32;3.67;;;3.33;;
11283;SDS011;5698;47.332;11.180;2022-10-18T07:16:59;6.00;;;3.60;;
11283;SDS011;5698;47.332;11.180;2022-10-18T07:19:26;4.73;;;2.70;;
11283;SDS011;5698;47.332;11.180;2022-10-18T07:21:53;3.50;;;3.20;;
11283;SDS011;5698;47.332;11.180;2022-10-18T07:24:21;2.90;;;2.47;;
11283;SDS011;5698;47.332;11.180;2022-10-18T07:26:48;4.27;;;2.93;;
11283;SDS011;5698;47.332;11.180;2022-10-18T07:29:15;3.20;;;2.90;;
11283;SDS011;5698;47.332;11.180;2022-10-18T07:31:42;3.90;;;2.77;;
11283;SDS011;5698;47.332;11.180;2022-10-18T07:34:09;5.13;;;2.63;;
11283;SDS011;5698;47.332;11.180;2022-10-18T07:36:38;2.70;;;2.50;;
11283;SDS011;5698;47.332;11.180;2022-10-18T07:39:05;4.03;;;2.33;;
11283;SDS011;5698;47.332;11.180;2022-10-18T07:41:33;2.67;;;2.47;;
11283;SDS011;5698;47.332;11.180;2022-10-18T07:44:01;2.83;;;2.30;;
11283;SDS011;5698;47.332;11.180;2022-10-18T07:46:29;2.57;;;2.30;;
11283;SDS011;5698;47.332;11.180;2022-10-18T07:48:56;2.60;;;2.33;;
11283;SDS011;5698;47.332;11.180;2022-10-18T07:51:23;2.63;;;2.33;;
11283;SDS011;5698;47.332;11.180;2022-10-18T07:53:51;2.43;;;2.27;;
11283;SDS011;5698;47.332;11.180;2022-10-18T07:56:19;4.90;;;2.50;;
11283;SDS011;5698;47.332;11.180;2022-10-18T07:58:48;3.60;;;2.30;;
11283;SDS011;5698;47.332;11.180;2022-10-18T08:01:17;3.73;;;2.50;;
11283;SDS011;5698;47.332;11.180;2022-10-18T08:03:45;2.50;;;2.30;;
11283;SDS011;5698;47.332;11.180;2022-10-18T08:06:13;3.47;;;2.40;;
11283;SDS011;5698;47.332;11.180;2022-10-18T08:08:42;2.63;;;2.37;;
11283;SDS011;5698;47.332;11.180;2022-10-18T08:11:10;2.00;;;1.90;;
11283;SDS011;5698;47.332;11.180;2022-10-18T08:13:38;2.33;;;2.10;;
11283;SDS011;5698;47.332;11.180;2022-10-18T08:16:08;2.60;;;2.37;;
11283;SDS011;5698;47.332;11.180;2022-10-18T08:18:36;2.53;;;2.23;;
11283;SDS011;5698;47.332;11.180;2022-10-18T08:21:05;3.37;;;2.00;;
11283;SDS011;5698;47.332;11.180;2022-10-18T08:23:33;3.43;;;2.30;;
11283;SDS011;5698;47.332;11.180;2022-10-18T08:26:00;2.60;;;2.23;;
11283;SDS011;5698;47.332;11.180;2022-10-18T08:28:28;3.20;;;2.00;;
11283;SDS011;5698;47.332;11.180;2022-10-18T08:30:55;2.63;;;1.87;;
11283;SDS011;5698;47.332;11.180;2022-10-18T08:33:23;2.30;;;2.10;;
11283;SDS011;5698;47.332;11.180;2022-10-18T08:35:53;2.13;;;1.93;;
11283;SDS011;5698;47.332;11.180;2022-10-18T08:38:20;3.33;;;2.50;;
11283;SDS011;5698;47.332;11.180;2022-10-18T08:40:47;8.10;;;2.30;;
11283;SDS011;5698;47.332;11.180;2022-10-18T08:43:15;2.20;;;2.00;;
11283;SDS011;5698;47.332;11.180;2022-10-18T08:45:52;2.47;;;2.27;;
11283;SDS011;5698;47.332;11.180;2022-10-18T08:48:21;2.43;;;2.23;;
11283;SDS011;5698;47.332;11.180;2022-10-18T08:50:55;2.97;;;2.03;;
11283;SDS011;5698;47.332;11.180;2022-10-18T08:53:25;1.93;;;1.83;;
11283;SDS011;5698;47.332;11.180;2022-10-18T08:55:56;2.30;;;2.10;;
11283;SDS011;5698;47.332;11.180;2022-10-18T08:58:30;2.27;;;2.03;;
11283;SDS011;5698;47.332;11.180;2022-10-18T09:01:02;2.30;;;2.10;;
11283;SDS011;5698;47.332;11.180;2022-10-18T09:03:43;2.43;;;2.23;;
11283;SDS011;5698;47.332;11.180;2022-10-18T09:06:24;2.50;;;2.30;;
11283;SDS011;5698;47.332;11.180;2022-10-18T09:09:02;2.47;;;2.10;;
11283;SDS011;5698;47.332;11.180;2022-10-18T09:11:40;2.97;;;2.17;;
11283;SDS011;5698;47.332;11.180;2022-10-18T09:17:14;2.60;;;1.83;;
11283;SDS011;5698;47.332;11.180;2022-10-18T09:19:54;3.33;;;2.20;;
11283;SDS011;5698;47.332;11.180;2022-10-18T09:22:48;2.20;;;2.00;;
11283;SDS011;5698;47.332;11.180;2022-10-18T09:25:22;4.50;;;2.13;;
11283;SDS011;5698;47.332;11.180;2022-10-18T09:27:51;2.53;;;2.23;;
11283;SDS011;5698;47.332;11.180;2022-10-18T09:33:13;2.33;;;2.13;;
11283;SDS011;5698;47.332;11.180;2022-10-18T09:35:53;2.50;;;2.30;;
11283;SDS011;5698;47.332;11.180;2022-10-18T09:38:23;2.03;;;1.93;;
11283;SDS011;5698;47.332;11.180;2022-10-18T09:40:55;2.77;;;2.43;;
11283;SDS011;5698;47.332;11.180;2022-10-18T09:43:24;2.27;;;2.07;;
11283;SDS011;5698;47.332;11.180;2022-10-18T09:45:57;2.30;;;2.10;;
11283;SDS011;5698;47.332;11.180;2022-10-18T09:48:25;2.13;;;1.93;;
11283;SDS011;5698;47.332;11.180;2022-10-18T09:51:00;5.70;;;2.10;;
11283;SDS011;5698;47.332;11.180;2022-10-18T09:53:34;2.17;;;1.97;;
11283;SDS011;5698;47.332;11.180;2022-10-18T09:56:07;1.83;;;1.73;;
11283;SDS011;5698;47.332;11.180;2022-10-18T09:58:39;2.03;;;1.90;;
11283;SDS011;5698;47.332;11.180;2022-10-18T10:01:08;3.50;;;2.20;;
11283;SDS011;5698;47.332;11.180;2022-10-18T10:03:38;3.17;;;2.10;;
11283;SDS011;5698;47.332;11.180;2022-10-18T10:08:56;2.23;;;2.13;;
11283;SDS011;5698;47.332;11.180;2022-10-18T10:11:29;2.77;;;2.20;;
11283;SDS011;5698;47.332;11.180;2022-10-18T10:14:06;9.50;;;2.30;;
11283;SDS011;5698;47.332;11.180;2022-10-18T10:16:41;2.30;;;2.10;;
11283;SDS011;5698;47.332;11.180;2022-10-18T10:19:15;4.17;;;2.00;;
11283;SDS011;5698;47.332;11.180;2022-10-18T10:21:50;2.30;;;2.10;;
11283;SDS011;5698;47.332;11.180;2022-10-18T10:24:20;5.03;;;2.40;;
11283;SDS011;5698;47.332;11.180;2022-10-18T10:26:57;2.93;;;2.73;;
11283;SDS011;5698;47.332;11.180;2022-10-18T10:32:19;2.00;;;1.90;;
11283;SDS011;5698;47.332;11.180;2022-10-18T10:34:48;1.80;;;1.70;;
11283;SDS011;5698;47.332;11.180;2022-10-18T10:40:09;2.03;;;1.83;;
11283;SDS011;5698;47.332;11.180;2022-10-18T10:42:56;2.10;;;1.90;;
11283;SDS011;5698;47.332;11.180;2022-10-18T10:45:31;1.73;;;1.60;;
11283;SDS011;5698;47.332;11.180;2022-10-18T10:48:03;2.50;;;2.30;;
11283;SDS011;5698;47.332;11.180;2022-10-18T10:50:32;2.87;;;1.73;;
11283;SDS011;5698;47.332;11.180;2022-10-18T10:53:35;2.63;;;2.00;;
11283;SDS011;5698;47.332;11.180;2022-10-18T10:56:06;3.63;;;1.60;;
11283;SDS011;5698;47.332;11.180;2022-10-18T10:58:42;4.40;;;1.90;;
11283;SDS011;5698;47.332;11.180;2022-10-18T11:01:17;3.97;;;1.70;;
11283;SDS011;5698;47.332;11.180;2022-10-18T11:03:48;2.20;;;2.00;;
11283;SDS011;5698;47.332;11.180;2022-10-18T11:09:26;2.05;;;1.90;;
11283;SDS011;5698;47.332;11.180;2022-10-18T11:12:02;3.67;;;1.77;;
11283;SDS011;5698;47.332;11.180;2022-10-18T11:14:43;2.67;;;1.67;;
11283;SDS011;5698;47.332;11.180;2022-10-18T11:17:16;2.65;;;1.50;;
11283;SDS011;5698;47.332;11.180;2022-10-18T11:19:54;3.70;;;1.40;;
11283;SDS011;5698;47.332;11.180;2022-10-18T11:22:31;4.70;;;1.60;;
11283;SDS011;5698;47.332;11.180;2022-10-18T11:25:04;3.85;;;1.75;;
11283;SDS011;5698;47.332;11.180;2022-10-18T11:27:32;2.80;;;1.42;;
11283;SDS011;5698;47.332;11.180;2022-10-18T11:30:12;5.28;;;1.60;;
11283;SDS011;5698;47.332;11.180;2022-10-18T11:33:01;5.05;;;1.83;;
11283;SDS011;5698;47.332;11.180;2022-10-18T11:35:40;3.97;;;1.92;;
11283;SDS011;5698;47.332;11.180;2022-10-18T11:41:05;4.57;;;1.65;;
11283;SDS011;5698;47.332;11.180;2022-10-18T11:43:43;2.80;;;1.60;;
11283;SDS011;5698;47.332;11.180;2022-10-18T11:46:18;5.80;;;1.58;;
11283;SDS011;5698;47.332;11.180;2022-10-18T11:48:55;4.15;;;1.98;;
11283;SDS011;5698;47.332;11.180;2022-10-18T11:51:44;3.22;;;1.70;;
11283;SDS011;5698;47.332;11.180;2022-10-18T11:54:24;3.67;;;1.70;;
11283;SDS011;5698;47.332;11.180;2022-10-18T11:57:07;2.53;;;1.60;;
11283;SDS011;5698;47.332;11.180;2022-10-18T11:59:50;6.82;;;1.90;;
11283;SDS011;5698;47.332;11.180;2022-10-18T12:02:30;2.10;;;1.90;;
11283;SDS011;5698;47.332;11.180;2022-10-18T12:05:21;4.10;;;1.98;;
11283;SDS011;5698;47.332;11.180;2022-10-18T12:07:52;7.22;;;1.90;;
11283;SDS011;5698;47.332;11.180;2022-10-18T12:10:23;2.83;;;1.67;;
11283;SDS011;5698;47.332;11.180;2022-10-18T12:12:53;6.75;;;1.80;;
11283;SDS011;5698;47.332;11.180;2022-10-18T12:15:26;5.77;;;1.50;;
11283;SDS011;5698;47.332;11.180;2022-10-18T12:17:55;6.23;;;1.90;;
11283;SDS011;5698;47.332;11.180;2022-10-18T12:20:25;3.67;;;1.50;;
11283;SDS011;5698;47.332;11.180;2022-10-18T12:22:58;5.07;;;1.73;;
11283;SDS011;5698;47.332;11.180;2022-10-18T12:25:27;3.47;;;1.80;;
11283;SDS011;5698;47.332;11.180;2022-10-18T12:27:59;3.10;;;1.40;;
11283;SDS011;5698;47.332;11.180;2022-10-18T12:30:32;9.17;;;1.83;;
11283;SDS011;5698;47.332;11.180;2022-10-18T12:33:07;3.10;;;1.60;;
11283;SDS011;5698;47.332;11.180;2022-10-18T12:35:40;2.60;;;1.73;;
11283;SDS011;5698;47.332;11.180;2022-10-18T12:38:18;6.80;;;1.93;;
11283;SDS011;5698;47.332;11.180;2022-10-18T12:40:48;11.03;;;1.97;;
11283;SDS011;5698;47.332;11.180;2022-10-18T12:43:21;4.13;;;1.80;;
11283;SDS011;5698;47.332;11.180;2022-10-18T12:45:51;4.03;;;1.93;;
11283;SDS011;5698;47.332;11.180;2022-10-18T12:48:32;5.50;;;2.10;;
11283;SDS011;5698;47.332;11.180;2022-10-18T12:51:03;4.23;;;1.43;;
11283;SDS011;5698;47.332;11.180;2022-10-18T12:53:37;4.47;;;1.50;;
11283;SDS011;5698;47.332;11.180;2022-10-18T13:02:14;3.50;;;1.77;;
11283;SDS011;5698;47.332;11.180;2022-10-18T13:04:54;5.70;;;1.87;;
11283;SDS011;5698;47.332;11.180;2022-10-18T13:07:35;7.00;;;2.10;;
11283;SDS011;5698;47.332;11.180;2022-10-18T13:16:22;2.73;;;1.63;;
11283;SDS011;5698;47.332;11.180;2022-10-18T13:18:57;3.87;;;1.90;;
11283;SDS011;5698;47.332;11.180;2022-10-18T13:21:32;5.37;;;1.70;;
11283;SDS011;5698;47.332;11.180;2022-10-18T13:24:13;5.73;;;1.93;;
11283;SDS011;5698;47.332;11.180;2022-10-18T13:26:53;5.13;;;1.70;;
11283;SDS011;5698;47.332;11.180;2022-10-18T13:30:04;4.80;;;1.97;;
11283;SDS011;5698;47.332;11.180;2022-10-18T13:32:46;7.10;;;2.10;;
11283;SDS011;5698;47.332;11.180;2022-10-18T13:38:33;6.27;;;2.30;;
11283;SDS011;5698;47.332;11.180;2022-10-18T13:41:04;3.87;;;1.80;;
11283;SDS011;5698;47.332;11.180;2022-10-18T13:49:47;5.63;;;2.00;;
11283;SDS011;5698;47.332;11.180;2022-10-18T13:52:36;3.27;;;1.83;;
11283;SDS011;5698;47.332;11.180;2022-10-18T13:55:32;6.17;;;1.70;;
11283;SDS011;5698;47.332;11.180;2022-10-18T13:58:08;5.53;;;1.53;;
11283;SDS011;5698;47.332;11.180;2022-10-18T14:00:46;6.83;;;1.97;;
11283;SDS011;5698;47.332;11.180;2022-10-18T14:03:23;8.87;;;2.00;;
11283;SDS011;5698;47.332;11.180;2022-10-18T14:06:05;2.63;;;1.70;;
11283;SDS011;5698;47.332;11.180;2022-10-18T14:08:36;4.70;;;2.00;;
11283;SDS011;5698;47.332;11.180;2022-10-18T14:11:10;7.37;;;2.00;;
11283;SDS011;5698;47.332;11.180;2022-10-18T14:13:47;5.80;;;1.97;;
11283;SDS011;5698;47.332;11.180;2022-10-18T14:16:25;5.03;;;1.53;;
11283;SDS011;5698;47.332;11.180;2022-10-18T14:18:59;6.30;;;1.90;;
11283;SDS011;5698;47.332;11.180;2022-10-18T14:21:33;5.07;;;1.33;;
11283;SDS011;5698;47.332;11.180;2022-10-18T14:24:07;6.97;;;1.70;;
11283;SDS011;5698;47.332;11.180;2022-10-18T14:26:41;5.87;;;1.97;;
11283;SDS011;5698;47.332;11.180;2022-10-18T14:29:15;6.23;;;1.97;;
11283;SDS011;5698;47.332;11.180;2022-10-18T14:31:48;5.03;;;1.70;;
11283;SDS011;5698;47.332;11.180;2022-10-18T14:34:17;3.83;;;1.80;;
11283;SDS011;5698;47.332;11.180;2022-10-18T14:36:45;3.10;;;1.80;;
11283;SDS011;5698;47.332;11.180;2022-10-18T14:39:16;5.03;;;1.80;;
11283;SDS011;5698;47.332;11.180;2022-10-18T14:41:50;5.30;;;1.93;;
11283;SDS011;5698;47.332;11.180;2022-10-18T14:44:19;7.20;;;1.93;;
11283;SDS011;5698;47.332;11.180;2022-10-18T14:46:48;3.77;;;1.63;;
11283;SDS011;5698;47.332;11.180;2022-10-18T14:49:16;4.33;;;1.70;;
11283;SDS011;5698;47.332;11.180;2022-10-18T14:51:45;6.73;;;1.60;;
11283;SDS011;5698;47.332;11.180;2022-10-18T14:54:16;7.53;;;2.00;;
11283;SDS011;5698;47.332;11.180;2022-10-18T14:56:45;4.13;;;1.73;;
11283;SDS011;5698;47.332;11.180;2022-10-18T14:59:16;5.40;;;1.67;;
11283;SDS011;5698;47.332;11.180;2022-10-18T15:01:50;6.63;;;2.07;;
11283;SDS011;5698;47.332;11.180;2022-10-18T15:04:20;3.20;;;2.07;;
11283;SDS011;5698;47.332;11.180;2022-10-18T15:06:47;3.93;;;2.50;;
11283;SDS011;5698;47.332;11.180;2022-10-18T15:09:15;6.73;;;2.47;;
11283;SDS011;5698;47.332;11.180;2022-10-18T15:11:47;12.07;;;2.87;;
11283;SDS011;5698;47.332;11.180;2022-10-18T15:14:17;4.73;;;2.40;;
11283;SDS011;5698;47.332;11.180;2022-10-18T15:16:45;3.57;;;2.00;;
11283;SDS011;5698;47.332;11.180;2022-10-18T15:19:27;4.53;;;2.10;;
11283;SDS011;5698;47.332;11.180;2022-10-18T15:21:57;2.93;;;1.50;;
11283;SDS011;5698;47.332;11.180;2022-10-18T15:24:29;5.83;;;1.90;;
11283;SDS011;5698;47.332;11.180;2022-10-18T15:27:00;4.30;;;2.00;;
11283;SDS011;5698;47.332;11.180;2022-10-18T15:29:40;3.40;;;2.40;;
11283;SDS011;5698;47.332;11.180;2022-10-18T15:32:13;2.80;;;2.10;;
11283;SDS011;5698;47.332;11.180;2022-10-18T15:34:43;5.17;;;1.90;;
11283;SDS011;5698;47.332;11.180;2022-10-18T15:37:17;5.50;;;2.50;;
11283;SDS011;5698;47.332;11.180;2022-10-18T15:43:00;4.60;;;2.23;;
11283;SDS011;5698;47.332;11.180;2022-10-18T15:45:32;2.73;;;1.73;;
11283;SDS011;5698;47.332;11.180;2022-10-18T15:48:16;4.17;;;2.07;;
11283;SDS011;5698;47.332;11.180;2022-10-18T15:50:46;4.67;;;2.20;;
11283;SDS011;5698;47.332;11.180;2022-10-18T15:53:29;8.10;;;2.07;;
11283;SDS011;5698;47.332;11.180;2022-10-18T15:56:12;5.27;;;2.33;;
11283;SDS011;5698;47.332;11.180;2022-10-18T15:58:53;8.23;;;2.60;;
11283;SDS011;5698;47.332;11.180;2022-10-18T16:01:25;8.20;;;2.50;;